Flight Track Log - Related Links

Times and Time Zones

All times are in EST time to prevent confusion due to time zone crossing. See the N589H flight status page for this flight to view local times or setup timezone preferences in your user account.

Time Position Orientation Groundspeed Altitude Reporting Facility
EST Latitude Longitude Course Direction KTS MPH feet Rate Location/Type
Sun 10:14:00 AM 27.9667 -82.7000 336° Northwest 193 222 1,400  Level Tampa TRACON
Sun 10:14:48 AM 28.0000 -82.7167 336° Northwest 210 242 1,700 1,368 Climbing Tampa TRACON
Sun 10:15:54 AM 28.0667 -82.7333 348° North 217 250 4,000 2,149 Climbing Tampa TRACON
Sun 10:18:23 AM 28.2103 -82.7419 357° North 209 241 9,400 2,038 Climbing Jacksonville Center
Sun 10:19:23 AM 28.2708 -82.7228 16° North 216 249 11,100 850 Climbing Jacksonville Center
Sun 10:20:23 AM 28.3439 -82.7086 10° North 231 266 11,100  Level Jacksonville Center
Sun 10:21:23 AM 28.4211 -82.6919 11° North 261 300 11,100  Level Jacksonville Center
Sun 10:22:23 AM 28.5003 -82.6753 10° North 276 318 11,100 100 Level Jacksonville Center
Sun 10:23:23 AM 28.5775 -82.6681 North 281 323 11,300 950 Climbing Jacksonville Center
Sun 10:24:23 AM 28.6506 -82.6631 North 271 312 13,000 1,700 Climbing Jacksonville Center
Sun 10:25:23 AM 28.7256 -82.6581 North 271 312 14,700 1,650 Climbing Jacksonville Center
Sun 10:26:23 AM 28.8008 -82.6556 North 271 312 16,300 1,550 Climbing Jacksonville Center
Sun 10:27:23 AM 28.8781 -82.6508 North 271 312 17,800 1,350 Climbing Jacksonville Center
Sun 10:28:23 AM 28.9531 -82.6458 North 271 312 19,000 1,300 Climbing Jacksonville Center
Sun 10:29:23 AM 29.0303 -82.6433 North 271 312 20,400 1,300 Climbing Jacksonville Center
Sun 10:30:23 AM 29.1117 -82.6383 North 276 318 21,600 1,400 Climbing Jacksonville Center
Sun 10:31:23 AM 29.1911 -82.6333 North 282 325 23,200 1,500 Climbing Jacksonville Center
Sun 10:32:23 AM 29.2747 -82.6308 North 288 331 24,600 1,350 Climbing Jacksonville Center
Sun 10:33:23 AM 29.3519 -82.6258 North 288 331 25,900 1,150 Climbing Jacksonville Center
Sun 10:34:23 AM 29.4311 -82.6208 North 288 331 26,900 1,000 Climbing Jacksonville Center
Sun 10:35:23 AM 29.5106 -82.6111 North 288 331 27,900 950 Climbing Jacksonville Center
Sun 10:36:23 AM 29.5919 -82.5964 North 288 331 28,800 850 Climbing Jacksonville Center
Sun 10:37:23 AM 29.6753 -82.5817 North 293 337 29,600 800 Climbing Jacksonville Center
Sun 10:38:23 AM 29.7589 -82.5697 North 293 337 30,400 750 Climbing Jacksonville Center
Sun 10:39:23 AM 29.8422 -82.5572 North 293 337 31,100 750 Climbing Jacksonville Center
Sun 10:40:23 AM 29.9217 -82.5428 North 298 343 31,900 650 Climbing Jacksonville Center
Sun 10:41:23 AM 30.0072 -82.5303 North 303 349 32,400 500 Climbing Jacksonville Center
Sun 10:42:23 AM 30.0947 -82.5181 North 308 354 32,900 300 Climbing Jacksonville Center
Sun 10:43:23 AM 30.1867 -82.5033 North 318 366 33,000 50 Climbing Jacksonville Center
Sun 10:44:23 AM 30.2825 -82.4883 North 332 382 33,000  Level Jacksonville Center
Sun 10:45:23 AM 30.3806 -82.4711 North 343 395 33,000  Level Jacksonville Center
Sun 10:46:23 AM 30.4828 -82.4539 North 354 407 33,000  Level Jacksonville Center
Sun 10:47:23 AM 30.5853 -82.4389 North 364 419 33,000  Level Jacksonville Center
Sun 10:48:23 AM 30.6875 -82.4217 North 371 427 33,000  Level Jacksonville Center
Sun 10:49:23 AM 30.7939 -82.4064 North 371 427 33,000  Level Jacksonville Center
Sun 10:50:23 AM 30.8961 -82.3867 North 371 427 33,000  Level Jacksonville Center
Sun 10:51:23 AM 31.0003 -82.3714 North 371 427 33,000  Level Jacksonville Center
Sun 10:52:23 AM 31.1069 -82.3539 North 371 427 33,000  Level Jacksonville Center
Sun 10:53:23 AM 31.2092 -82.3364 North 371 427 33,000  Level Jacksonville Center
Sun 10:54:23 AM 31.3133 -82.3211 North 371 427 33,000  Level Jacksonville Center
Sun 10:55:23 AM 31.4178 -82.3033 North 371 427 33,000  Level Jacksonville Center
Sun 10:56:23 AM 31.5219 -82.2858 North 371 427 33,000  Level Jacksonville Center
Sun 10:58:06 AM 31.6983 -82.2547 North 376 433 33,000  Level Atlanta Center
Sun 10:59:06 AM 31.8022 -82.2378 North 376 433 33,000  Level Atlanta Center
Sun 11:00:05 AM 31.9064 -82.2186 North 376 433 33,000  Level Atlanta Center
Sun 11:01:05 AM 32.0125 -82.2042 North 371 427 33,000  Level Atlanta Center
Sun 11:02:06 AM 32.1147 -82.1850 North 371 427 33,000  Level Atlanta Center
Sun 11:03:05 AM 32.2144 -82.1683 North 371 427 33,000  Level Atlanta Center
Sun 11:04:06 AM 32.3311 -82.1486 North 371 427 33,000  Level Atlanta Center
Sun 11:05:06 AM 32.4311 -82.1317 North 371 427 33,000  Level Atlanta Center
Sun 11:06:06 AM 32.5331 -82.1147 North 371 427 33,000  Level Atlanta Center
Sun 11:07:06 AM 32.6350 -82.0975 North 365 420 33,000  Level Atlanta Center
Sun 11:08:05 AM 32.7289 -82.0831 North 377 434 33,000  Level Atlanta Center
Sun 11:09:06 AM 32.8328 -82.0611 10° North 377 434 33,000  Level Atlanta Center
Sun 11:10:05 AM 32.9369 -82.0439 North 372 428 33,000  Level Atlanta Center
Sun 11:11:06 AM 33.0408 -82.0267 North 372 428 33,000  Level Atlanta Center
Sun 11:12:05 AM 33.1431 -82.0094 North 372 428 33,000  Level Atlanta Center
Sun 11:13:06 AM 33.2469 -81.9922 North 372 428 33,000  Level Atlanta Center
Sun 11:14:06 AM 33.3511 -81.9747 North 372 428 33,000  Level Atlanta Center
Sun 11:15:06 AM 33.4550 -81.9547 North 372 428 33,000  Level Atlanta Center
Sun 11:16:05 AM 33.5572 -81.9375 North 372 428 33,000  Level Atlanta Center
Sun 11:17:05 AM 33.6611 -81.9172 North 372 428 33,000  Level Atlanta Center
Sun 11:18:06 AM 33.7653 -81.8997 North 372 428 33,000  Level Atlanta Center
Sun 11:19:06 AM 33.8797 -81.8819 North 372 428 33,000  Level Atlanta Center
Sun 11:20:06 AM 33.9836 -81.8617 North 372 428 33,000  Level Atlanta Center
Sun 11:21:06 AM 34.0878 -81.8442 North 372 428 33,000  Level Atlanta Center
Sun 11:22:06 AM 34.1939 -81.8264 North 372 428 33,000  Level Atlanta Center
Sun 11:23:06 AM 34.2978 -81.8083 North 372 428 33,000  Level Atlanta Center
Sun 11:24:06 AM 34.4019 -81.7906 North 372 428 33,000  Level Atlanta Center
Sun 11:25:06 AM 34.5039 -81.7728 North 372 428 33,000  Level Atlanta Center
Sun 11:26:06 AM 34.6100 -81.7547 North 372 428 33,000  Level Atlanta Center
Sun 11:27:06 AM 34.7161 -81.7367 North 377 434 33,000  Level Atlanta Center
Sun 11:28:06 AM 34.8200 -81.7186 North 377 434 33,000  Level Atlanta Center
Sun 11:29:06 AM 34.9136 -81.7033 North 377 434 33,000  Level Atlanta Center
Sun 11:30:06 AM 35.0175 -81.6853 North 372 428 33,000  Level Atlanta Center
Sun 11:31:06 AM 35.1217 -81.6644 North 372 428 33,000  Level Atlanta Center
Sun 11:32:06 AM 35.2256 -81.6464 North 372 428 33,000  Level Atlanta Center
Sun 11:33:06 AM 35.3356 -81.6253 North 378 435 33,000  Level Atlanta Center
Sun 11:34:06 AM 35.4397 -81.6069 North 378 435 33,000  Level Atlanta Center
Sun 11:35:06 AM 35.5456 -81.5883 North 378 435 33,000  Level Atlanta Center
Sun 11:36:06 AM 35.6536 -81.5672 North 384 442 33,000  Level Atlanta Center
Sun 11:37:06 AM 35.7617 -81.5461 North 389 448 33,000  Level Atlanta Center
Sun 11:38:06 AM 35.8678 -81.5275 North 389 448 33,000  Level Atlanta Center
Sun 11:39:06 AM 35.9736 -81.5064 North 389 448 33,000  Level Atlanta Center
Sun 11:40:06 AM 36.0797 -81.4850 North 389 448 33,000  Level Atlanta Center
Sun 11:41:06 AM 36.1878 -81.4686 North 389 448 33,000  Level Atlanta Center
Sun 11:42:06 AM 36.2917 -81.4472 North 389 448 33,000  Level Atlanta Center
Sun 11:44:16 AM 36.5269 -81.4033 North 390 449 33,000  Level Indianapolis Center
Sun 11:45:17 AM 36.6317 -81.3822 North 391 450 33,000  Level Indianapolis Center
Sun 11:46:18 AM 36.7372 -81.3633 North 393 452 33,000  Level Indianapolis Center
Sun 11:47:19 AM 36.8664 -81.3394 North 397 457 33,000  Level Indianapolis Center
Sun 11:48:20 AM 36.9700 -81.3189 North 390 449 33,000  Level Indianapolis Center
Sun 11:49:22 AM 37.0900 -81.2969 North 396 456 33,000  Level Indianapolis Center
Sun 11:50:23 AM 37.1994 -81.2758 North 397 457 33,000  Level Indianapolis Center
Sun 11:51:24 AM 37.3128 -81.2542 North 397 457 33,000  Level Indianapolis Center
Sun 11:52:25 AM 37.4206 -81.2350 North 401 461 33,000  Level Indianapolis Center
Sun 11:53:26 AM 37.5275 -81.2125 North 399 459 33,000  Level Indianapolis Center
Sun 11:54:27 AM 37.6336 -81.1919 North 396 456 33,000  Level Indianapolis Center
Sun 11:55:28 AM 37.7417 -81.1706 North 400 460 33,000  Level Indianapolis Center
Sun 11:56:29 AM 37.8711 -81.1489 North 399 459 33,000  Level Indianapolis Center
Sun 11:57:30 AM 37.9817 -81.1244 10° North 401 461 33,000  Level Indianapolis Center
Sun 11:58:31 AM 38.0911 -81.1039 North 400 460 33,000  Level Indianapolis Center
Sun 11:59:33 AM 38.2000 -81.0825 North 398 458 33,000  Level Indianapolis Center
Sun 12:00:34 PM 38.3092 -81.0606 North 400 460 33,000  Level Indianapolis Center
Sun 12:01:35 PM 38.4175 -81.0394 North 396 456 33,000  Level Indianapolis Center
Sun 12:02:36 PM 38.5272 -81.0178 North 398 458 33,000  Level Indianapolis Center
Sun 12:03:37 PM 38.6361 -80.9958 North 400 460 33,000  Level Indianapolis Center
Sun 12:04:38 PM 38.7450 -80.9742 North 399 459 33,000  Level Indianapolis Center
Sun 12:05:39 PM 38.8542 -80.9533 North 399 459 33,000  Level Indianapolis Center
Sun 12:06:40 PM 38.9639 -80.9294 10° North 401 461 33,000  Level Indianapolis Center
Sun 12:07:41 PM 39.0950 -80.9044 North 397 457 33,000  Level Indianapolis Center
Sun 12:08:42 PM 39.2050 -80.8817 North 400 460 33,000  Level Indianapolis Center
Sun 12:09:43 PM 39.3147 -80.8603 North 397 457 33,000  Level Indianapolis Center
Sun 12:10:44 PM 39.4244 -80.8381 North 400 460 33,000  Level Indianapolis Center
Sun 12:11:44 PM 39.5361 -80.8164 North 405 466 33,000  Level Indianapolis Center
Sun 12:12:45 PM 39.6453 -80.7944 North 399 459 33,000  Level Indianapolis Center
Sun 12:13:46 PM 39.7544 -80.7714 North 397 457 33,000  Level Indianapolis Center
Sun 12:14:47 PM 39.8636 -80.7503 North 397 457 33,000  Level Indianapolis Center
Sun 12:15:53 PM 39.9783 -80.7256 North 398 458 33,000  Level Cleveland Center
Sun 12:16:54 PM 40.0886 -80.7017 North 400 460 33,000  Level Cleveland Center
Sun 12:17:55 PM 40.2000 -80.6803 North 401 461 33,000  Level Cleveland Center
Sun 12:18:56 PM 40.3322 -80.6514 North 400 460 33,000  Level Cleveland Center
Sun 12:19:58 PM 40.4444 -80.6278 North 403 464 33,000  Level Cleveland Center
Sun 12:20:59 PM 40.5572 -80.6042 North 406 467 33,000  Level Cleveland Center
Sun 12:22:00 PM 40.6747 -80.5806 North 405 466 33,000  Level Cleveland Center
Sun 12:23:01 PM 40.7867 -80.5569 North 405 466 33,000  Level Cleveland Center
Sun 12:24:03 PM 40.8947 -80.5344 North 409 471 33,000  Level Cleveland Center
Sun 12:25:04 PM 41.0081 -80.5097 North 411 473 33,000  Level Cleveland Center
Sun 12:26:05 PM 41.1206 -80.4867 North 410 472 33,000  Level Cleveland Center
Sun 12:27:06 PM 41.2411 -80.4606 North 414 476 33,000  Level Cleveland Center
Sun 12:28:08 PM 41.3544 -80.4347 10° North 411 473 33,000  Level Cleveland Center
Sun 12:29:09 PM 41.4675 -80.4122 North 410 472 33,000  Level Cleveland Center
Sun 12:30:10 PM 41.5808 -80.3858 10° North 410 472 33,000  Level Cleveland Center
Sun 12:31:11 PM 41.6931 -80.3622 North 406 467 33,000 -488 Level Cleveland Center
Sun 12:32:13 PM 41.8156 -80.3319 10° North 473 544 32,000 -1,073 Descending Cleveland Center
Sun 12:33:14 PM 41.9336 -80.3069 North 431 496 30,800 -1,131 Descending Cleveland Center
Sun 12:34:15 PM 42.0539 -80.2947 North 434 499 29,700 -1,220 Descending Cleveland Center
Sun 12:35:17 PM 42.1983 -80.2353 17° North 465 535 28,300 -1,317 Descending Cleveland Center
Sun 12:36:18 PM 42.3231 -80.1814 18° North 473 544 27,000 -1,574 Descending Cleveland Center
Sun 12:37:19 PM 42.4483 -80.1306 17° North 469 540 25,100 -1,951 Descending Cleveland Center
Sun 12:38:21 PM 42.5653 -80.0814 17° North 442 509 23,000 -1,756 Descending Cleveland Center
Sun 12:39:22 PM 42.6658 -80.0436 15° North 382 440 21,500 -1,475 Descending Cleveland Center
Sun 12:40:23 PM 42.7644 -80.0039 16° North 370 426 20,000 -1,475 Descending Cleveland Center
Sun 12:42:25 PM 42.9500 -79.8833 25° Northeast 380 437 17,000 -1,516 Descending Toronto Center
Sun 12:43:25 PM 43.0500 -79.8333 20° North 370 426 15,400 -1,650 Descending Toronto Center
Sun 12:44:25 PM 43.1333 -79.8000 16° North 360 414 13,700 -1,600 Descending Toronto Center
Sun 12:45:25 PM 43.2333 -79.7167 31° Northeast 340 391 12,200 -1,750 Descending Toronto Center
Sun 12:46:25 PM 43.3167 -79.6833 16° North 330 380 10,200 -1,600 Descending Toronto Center
Sun 12:47:25 PM 43.3833 -79.6500 20° North 310 357 9,000 -750 Descending Toronto Center
Sun 12:48:25 PM 43.4667 -79.5833 30° Northeast 290 334 8,700 -500 Descending Toronto Center
Sun 12:49:25 PM 43.5167 -79.5333 36° Northeast 270 311 8,000 -850 Descending Toronto Center
Sun 12:50:25 PM 43.5833 -79.5000 20° North 260 299 7,000 -1,450 Descending Toronto Center
Sun 12:51:25 PM 43.6500 -79.4500 28° Northeast 260 299 5,100 -1,400 Descending Toronto Center
Sun 12:52:25 PM 43.7167 -79.4000 28° Northeast 250 288 4,200 -600 Descending Toronto Center
Sun 12:53:25 PM 43.7667 -79.4333 334° Northwest 210 242 3,900 -600 Descending Toronto Center
Sun 12:54:25 PM 43.7667 -79.5000 270° West 190 219 3,000 -800 Descending Toronto Center
Sun 12:55:25 PM 43.7333 -79.5333 216° Southwest 180 207 2,300 -800 Descending Toronto Center
Sun 12:56:25 PM 43.7167 -79.5833 245° Southwest 150 173 1,400 -600 Descending Toronto Center
Sun 12:58:25 PM 43.6833 -79.6333 227° Southwest 40 46 500 -300 Descending Toronto Center
Sun 12:59:25 PM 43.6833 -79.6333 227° Southwest 10 12 500  Level Toronto Center

Login

Don't have an account? Register now (free) for customized features, flight alerts, and more!